Terminal Aerodrome Forecast
Issued by NWS

Current Version | Previous Version | Text Only | Print | Product List | Glossary Off
Versions: 1 2 3 4 5 6 7 8 9 10 11 12 13 14 15 16 17 18 19 20 21 22 23

133
FTUS42 KMHX 172344
TAFPGV
TAF
KPGV 172344Z 1800/1824 00000KT P6SM VCSH OVC005
     FM180130 29006KT 3SM BR VCSH BKN004
     FM180700 30006KT P6SM VCSH OVC007
     FM181000 31005KT P6SM BKN110
     FM181300 03008KT P6SM FEW250
      AMD LTD TO CLD VIS AND WIND=

USA.gov is the U.S. government's official web portal to all federal, state and local government web resources and services.